Time;durP1;ratioP1;P1;durP2;ratioP2;P2;SDS_P1;SDS_P2;PMS_P1;PMS_P2;Temp;Humidity;BMP_temperature;BMP_pressure;BME280_temperature;BME280_humidity;BME280_pressure;Samples;Min_cycle;Max_cycle;Signal;HPM_P1;HPM_P2
2021/10/13 00:00:21;;;;;;;12.68;3.45;;;9.80;96.40;;;;;;5030744;28;20072;-71
2021/10/13 00:02:47;;;;;;;11.77;3.00;;;9.90;96.30;;;;;;5031972;28;20456;-71
2021/10/13 00:05:12;;;;;;;7.32;3.40;;;9.80;96.40;;;;;;5030937;28;20057;-72
2021/10/13 00:07:38;;;;;;;4.32;2.70;;;9.80;96.50;;;;;;5030871;28;20025;-72
2021/10/13 00:10:05;;;;;;;8.18;3.72;;;9.90;96.40;;;;;;5031381;28;20045;-73
2021/10/13 00:12:33;;;;;;;4.43;3.03;;;9.80;96.50;;;;;;5031304;28;20025;-72
2021/10/13 00:14:59;;;;;;;4.72;2.92;;;9.80;96.50;;;;;;5031442;28;20025;-72
2021/10/13 00:17:25;;;;;;;6.60;3.15;;;9.80;96.60;;;;;;5031581;28;20037;-72
2021/10/13 00:19:50;;;;;;;5.85;3.03;;;9.90;96.50;;;;;;5031848;28;20443;-74
2021/10/13 00:22:16;;;;;;;8.82;3.38;;;9.80;96.40;;;;;;5031671;28;20168;-73
2021/10/13 00:24:42;;;;;;;7.90;3.30;;;9.80;96.50;;;;;;5030217;28;20045;-70
2021/10/13 00:27:07;;;;;;;6.80;3.50;;;9.80;96.40;;;;;;5031496;28;20135;-72
2021/10/13 00:29:36;;;;;;;6.57;3.83;;;9.80;96.40;;;;;;5031368;28;20037;-71
2021/10/13 00:32:04;;;;;;;13.77;3.92;;;9.70;96.50;;;;;;5030101;28;20018;-71
2021/10/13 00:34:31;;;;;;;6.30;3.15;;;9.70;96.50;;;;;;5031969;28;20053;-71
2021/10/13 00:36:56;;;;;;;7.95;3.55;;;9.70;96.50;;;;;;5031254;28;20021;-72
2021/10/13 00:39:22;;;;;;;9.00;3.60;;;9.70;96.50;;;;;;5031572;28;20064;-72
2021/10/13 00:41:47;;;;;;;9.45;4.22;;;9.70;96.60;;;;;;5031276;28;20383;-72
2021/10/13 00:44:13;;;;;;;11.43;3.63;;;9.70;96.60;;;;;;5031164;28;20554;-72
2021/10/13 00:46:38;;;;;;;7.97;3.17;;;9.70;96.60;;;;;;5031573;28;20026;-72
2021/10/13 00:49:04;;;;;;;8.52;3.90;;;9.70;96.70;;;;;;5031105;28;20045;-72
2021/10/13 00:51:30;;;;;;;7.22;3.25;;;9.70;96.70;;;;;;5031335;28;20061;-72
2021/10/13 00:53:56;;;;;;;9.93;4.35;;;9.70;96.70;;;;;;5031112;28;20482;-72
2021/10/13 00:56:22;;;;;;;9.98;3.95;;;9.70;96.70;;;;;;5031520;28;20026;-72
2021/10/13 00:58:47;;;;;;;12.00;4.32;;;9.60;96.80;;;;;;5031354;28;20363;-72
2021/10/13 01:01:20;;;;;;;10.70;4.10;;;9.60;96.80;;;;;;5031216;28;20079;-72
2021/10/13 01:04:14;;;;;;;12.30;6.38;;;9.50;96.80;;;;;;5031224;28;20060;-72
2021/10/13 01:06:39;;;;;;;11.55;4.68;;;9.50;97.00;;;;;;5031315;28;20083;-71
2021/10/13 01:09:23;;;;;;;13.05;5.55;;;9.40;97.40;;;;;;5030814;28;20057;-73
2021/10/13 01:12:15;;;;;;;11.80;5.25;;;9.40;97.30;;;;;;5029809;28;20348;-73
2021/10/13 01:15:11;;;;;;;14.93;6.57;;;9.50;97.30;;;;;;5030846;28;20026;-73
2021/10/13 01:17:42;;;;;;;20.00;6.68;;;9.50;97.50;;;;;;5034083;28;20041;-72
2021/10/13 01:20:42;;;;;;;21.25;7.50;;;9.40;97.40;;;;;;5034531;28;20057;-71
2021/10/13 01:23:17;;;;;;;17.88;7.00;;;9.20;98.00;;;;;;5034580;28;20045;-72
2021/10/13 01:25:48;;;;;;;19.67;7.30;;;9.40;97.80;;;;;;5035129;28;20148;-72
2021/10/13 01:28:19;;;;;;;22.45;7.97;;;9.50;97.50;;;;;;5033477;28;20371;-71
2021/10/13 01:30:55;;;;;;;17.88;8.10;;;9.50;97.50;;;;;;5034460;28;20539;-72
2021/10/13 01:33:38;;;;;;;16.95;8.50;;;9.50;97.60;;;;;;5034482;28;20048;-72
2021/10/13 01:36:08;;;;;;;18.48;8.32;;;9.50;97.60;;;;;;5044734;28;20116;-72
2021/10/13 01:38:40;;;;;;;21.73;9.20;;;9.50;97.60;;;;;;5054520;28;20442;-71
2021/10/13 01:41:08;;;;;;;27.10;10.30;;;9.50;97.70;;;;;;5054261;28;20097;-72
2021/10/13 01:43:38;;;;;;;28.05;10.75;;;9.60;97.70;;;;;;5055198;28;20036;-72
2021/10/13 01:46:05;;;;;;;25.83;10.25;;;9.60;97.50;;;;;;5054171;28;20067;-72
2021/10/13 01:48:32;;;;;;;26.10;10.90;;;9.60;97.60;;;;;;5054376;28;20025;-72
2021/10/13 01:50:58;;;;;;;26.58;11.05;;;9.60;97.60;;;;;;5054042;28;20600;-72
2021/10/13 01:53:25;;;;;;;23.90;10.38;;;9.60;97.60;;;;;;5054022;28;20482;-72
2021/10/13 01:55:51;;;;;;;23.33;10.60;;;9.60;97.70;;;;;;5054235;28;20040;-72
2021/10/13 01:58:19;;;;;;;23.45;10.90;;;9.50;97.70;;;;;;5053758;28;20143;-72
2021/10/13 02:00:50;;;;;;;24.70;12.10;;;9.60;97.70;;;;;;5053842;28;20029;-72
2021/10/13 02:03:23;;;;;;;30.05;12.95;;;9.50;97.80;;;;;;5053886;28;20055;-72
2021/10/13 02:05:52;;;;;;;33.30;12.68;;;9.50;97.80;;;;;;5053971;28;20344;-72
2021/10/13 02:08:19;;;;;;;33.35;12.88;;;9.40;97.80;;;;;;5052807;28;20461;-70
2021/10/13 02:10:47;;;;;;;34.00;12.70;;;9.50;98.00;;;;;;5054018;28;20053;-71
2021/10/13 02:13:14;;;;;;;27.57;11.53;;;9.40;98.20;;;;;;5053722;28;20049;-71
2021/10/13 02:15:42;;;;;;;31.75;11.90;;;9.40;98.40;;;;;;5053772;28;20041;-71
2021/10/13 02:18:23;;;;;;;30.15;12.23;;;9.40;98.30;;;;;;5053535;28;20486;-71
2021/10/13 02:20:50;;;;;;;36.15;12.98;;;9.40;98.10;;;;;;5053576;28;20025;-72
2021/10/13 02:23:17;;;;;;;27.63;10.60;;;9.40;98.20;;;;;;5053669;28;20036;-71
2021/10/13 02:25:47;;;;;;;29.58;10.90;;;9.50;98.30;;;;;;5054138;28;20024;-72
2021/10/13 02:28:21;;;;;;;28.50;10.68;;;9.40;98.10;;;;;;5052220;28;20064;-72
2021/10/13 02:30:47;;;;;;;25.05;11.00;;;9.30;98.30;;;;;;5053624;28;20033;-72
2021/10/13 02:33:12;;;;;;;23.05;10.57;;;9.30;98.40;;;;;;5053572;28;20059;-72
2021/10/13 02:35:38;;;;;;;21.63;10.73;;;9.30;98.50;;;;;;5053496;28;20192;-71
2021/10/13 02:38:04;;;;;;;23.15;10.32;;;9.20;98.40;;;;;;5053041;28;20519;-72
2021/10/13 02:40:29;;;;;;;22.25;9.50;;;9.20;98.50;;;;;;5053895;28;20039;-72
2021/10/13 02:42:55;;;;;;;23.13;10.50;;;9.20;98.60;;;;;;5053188;28;20104;-72
2021/10/13 02:45:21;;;;;;;23.20;10.82;;;9.20;98.60;;;;;;5052955;28;20128;-72
2021/10/13 02:47:53;;;;;;;20.75;9.85;;;9.20;98.70;;;;;;5053363;28;20076;-72
2021/10/13 02:50:41;;;;;;;24.15;11.38;;;9.30;98.60;;;;;;5053056;28;20017;-72
2021/10/13 02:53:28;;;;;;;22.63;10.25;;;9.30;98.60;;;;;;5022711;28;20087;-72
2021/10/13 02:56:01;;;;;;;29.10;10.80;;;9.30;98.80;;;;;;5053302;28;20029;-72
2021/10/13 02:58:36;;;;;;;22.55;10.68;;;9.30;98.90;;;;;;5053062;28;20324;-72
2021/10/13 03:01:03;;;;;;;22.85;10.43;;;9.40;98.80;;;;;;5052874;28;20033;-73
2021/10/13 03:03:49;;;;;;;29.73;10.40;;;9.50;98.80;;;;;;5053013;28;20108;-71
2021/10/13 03:06:16;;;;;;;25.77;10.88;;;9.40;98.70;;;;;;5052345;28;20266;-71
2021/10/13 03:08:46;;;;;;;23.43;9.87;;;9.50;98.80;;;;;;5052611;28;20033;-72
2021/10/13 03:11:13;;;;;;;26.63;10.48;;;9.40;98.80;;;;;;5052594;28;20029;-72
2021/10/13 03:13:44;;;;;;;25.73;10.70;;;9.20;98.70;;;;;;5053157;28;20031;-71
2021/10/13 03:16:12;;;;;;;23.90;11.10;;;9.10;99.00;;;;;;5052589;28;20021;-72
2021/10/13 03:18:40;;;;;;;23.02;11.70;;;9.00;99.30;;;;;;5052590;28;20120;-72
2021/10/13 03:21:06;;;;;;;;;;;9.10;99.30;;;;;;5052782;28;20036;-72
2021/10/13 03:23:32;;;;;;;20.52;10.52;;;8.90;99.70;;;;;;5052573;28;19916;-71
2021/10/13 03:26:08;;;;;;;22.48;10.65;;;9.00;99.50;;;;;;5052820;28;20105;-72
2021/10/13 03:28:35;;;;;;;23.17;10.27;;;9.00;99.70;;;;;;5052523;28;20029;-71
2021/10/13 03:31:00;;;;;;;27.50;11.65;;;9.10;99.50;;;;;;5052196;28;20025;-72
2021/10/13 03:33:26;;;;;;;22.58;10.30;;;9.10;99.50;;;;;;5052146;28;20044;-72
2021/10/13 03:35:52;;;;;;;27.92;12.13;;;9.20;99.40;;;;;;5052168;28;20033;-72
2021/10/13 03:38:17;;;;;;;27.88;11.43;;;9.10;99.40;;;;;;5052081;28;20142;-72
2021/10/13 03:40:43;;;;;;;22.73;10.98;;;9.30;99.50;;;;;;5052462;28;20353;-72
2021/10/13 03:43:09;;;;;;;18.88;9.65;;;9.40;99.30;;;;;;5052042;28;20029;-72
2021/10/13 03:45:35;;;;;;;21.15;10.00;;;9.50;99.10;;;;;;5052088;28;20394;-72
2021/10/13 03:48:01;;;;;;;22.17;9.07;;;9.50;99.00;;;;;;5052116;28;20112;-73
2021/10/13 03:50:26;;;;;;;20.65;10.65;;;9.30;99.10;;;;;;5051914;28;20377;-73
2021/10/13 03:52:52;;;;;;;20.05;9.88;;;9.30;99.20;;;;;;5052315;28;20343;-73
2021/10/13 03:55:19;;;;;;;21.02;10.48;;;9.30;99.30;;;;;;5051771;28;20099;-71
2021/10/13 03:57:45;;;;;;;18.38;9.13;;;9.20;99.40;;;;;;5052093;28;20120;-73
2021/10/13 04:00:14;;;;;;;20.38;10.10;;;9.20;99.70;;;;;;5051823;28;20028;-73
2021/10/13 04:02:39;;;;;;;18.42;9.65;;;9.30;99.60;;;;;;5052000;28;20021;-73
2021/10/13 04:05:06;;;;;;;20.70;9.02;;;9.40;99.50;;;;;;5050417;28;20027;-73
2021/10/13 04:07:32;;;;;;;22.90;10.10;;;9.40;99.30;;;;;;5051792;28;20032;-73
2021/10/13 04:09:59;;;;;;;22.00;10.20;;;9.50;99.20;;;;;;5051600;28;20088;-70
2021/10/13 04:12:25;;;;;;;19.30;9.77;;;9.50;99.20;;;;;;5051563;28;20120;-71
2021/10/13 04:14:51;;;;;;;17.45;9.68;;;9.50;99.20;;;;;;5051650;28;20120;-70
2021/10/13 04:17:18;;;;;;;16.10;8.85;;;9.50;99.20;;;;;;5051388;28;20086;-71
2021/10/13 04:19:43;;;;;;;18.38;9.63;;;9.40;99.20;;;;;;5051821;28;20032;-72
2021/10/13 04:22:09;;;;;;;17.02;7.72;;;9.40;99.20;;;;;;5051164;28;20037;-72
2021/10/13 04:24:35;;;;;;;15.27;7.55;;;9.40;99.20;;;;;;5051149;28;20047;-72
2021/10/13 04:27:00;;;;;;;16.60;8.25;;;9.50;99.30;;;;;;5050172;28;20033;-71
2021/10/13 04:29:26;;;;;;;18.75;9.32;;;9.50;99.10;;;;;;5050143;28;20036;-71
2021/10/13 04:31:51;;;;;;;20.35;9.35;;;9.60;99.00;;;;;;5051821;28;20036;-72
2021/10/13 04:34:17;;;;;;;20.13;8.55;;;9.60;98.90;;;;;;5051151;28;20414;-71
2021/10/13 04:36:43;;;;;;;16.08;8.20;;;9.60;99.00;;;;;;5051193;28;20025;-70
2021/10/13 04:39:08;;;;;;;19.05;7.75;;;9.60;99.00;;;;;;5050987;28;20340;-72
2021/10/13 04:41:34;;;;;;;11.32;6.82;;;9.60;98.90;;;;;;5051103;28;20033;-73
2021/10/13 04:44:00;;;;;;;11.75;7.63;;;9.50;98.90;;;;;;5051602;28;20460;-72
2021/10/13 04:46:25;;;;;;;19.48;8.27;;;9.50;99.10;;;;;;5050806;28;20048;-71
2021/10/13 04:48:51;;;;;;;18.55;9.82;;;9.70;99.10;;;;;;5050975;28;20505;-72
2021/10/13 04:51:17;;;;;;;15.23;8.68;;;9.70;98.90;;;;;;5051906;28;20040;-71
2021/10/13 04:53:42;;;;;;;16.30;8.88;;;9.70;99.00;;;;;;5055298;28;20263;-72
2021/10/13 04:56:08;;;;;;;18.48;9.10;;;9.60;99.10;;;;;;5055013;28;20021;-72
2021/10/13 04:58:33;;;;;;;18.10;9.00;;;9.50;99.10;;;;;;5055525;28;20036;-72
2021/10/13 05:00:59;;;;;;;17.88;8.27;;;9.60;99.20;;;;;;5054774;28;20102;-72
2021/10/13 05:03:24;;;;;;;17.48;9.10;;;9.50;99.20;;;;;;5054951;28;20596;-72
2021/10/13 05:05:50;;;;;;;14.15;8.23;;;9.60;99.30;;;;;;5054910;28;20029;-72
2021/10/13 05:08:16;;;;;;;20.60;9.02;;;9.60;99.20;;;;;;5054698;28;20108;-72
2021/10/13 05:10:41;;;;;;;15.13;8.07;;;9.60;99.10;;;;;;5054749;28;20139;-72
2021/10/13 05:13:07;;;;;;;15.95;8.75;;;9.40;99.40;;;;;;5054663;28;20537;-72
2021/10/13 05:15:32;;;;;;;20.17;9.05;;;9.40;99.50;;;;;;5054477;28;20029;-73
2021/10/13 05:17:58;;;;;;;14.32;8.48;;;9.50;99.60;;;;;;5054331;28;20086;-72
2021/10/13 05:20:24;;;;;;;19.13;9.65;;;9.60;99.50;;;;;;5054434;28;20033;-71
2021/10/13 05:22:49;;;;;;;16.52;9.38;;;9.60;99.50;;;;;;5054863;28;20025;-72
2021/10/13 05:25:15;;;;;;;16.55;9.07;;;9.80;99.30;;;;;;5054285;28;20037;-73
2021/10/13 05:27:41;;;;;;;16.38;8.88;;;9.80;99.10;;;;;;5053429;28;20029;-72
2021/10/13 05:30:07;;;;;;;20.02;11.10;;;9.80;99.30;;;;;;5054441;28;20040;-73
2021/10/13 05:32:33;;;;;;;17.17;9.93;;;9.80;99.30;;;;;;5054082;28;20049;-72
2021/10/13 05:34:59;;;;;;;21.92;10.20;;;9.80;99.40;;;;;;5054637;28;20055;-73
2021/10/13 05:37:24;;;;;;;17.15;9.18;;;9.80;99.50;;;;;;5054537;28;20040;-72
2021/10/13 05:39:50;;;;;;;16.67;8.40;;;9.80;99.40;;;;;;5054374;28;20536;-75
2021/10/13 05:42:15;;;;;;;18.02;8.77;;;9.70;99.50;;;;;;5053150;28;20029;-73
2021/10/13 05:44:41;;;;;;;13.77;8.70;;;9.60;99.50;;;;;;5053960;28;20044;-73
2021/10/13 05:47:07;;;;;;;17.90;10.20;;;9.50;99.90;;;;;;5053930;28;20060;-71
2021/10/13 05:49:33;;;;;;;18.50;10.30;;;9.60;99.80;;;;;;5054336;28;20029;-72
2021/10/13 05:51:58;;;;;;;16.85;9.68;;;9.70;99.80;;;;;;5053983;28;20033;-72
2021/10/13 05:54:24;;;;;;;21.85;10.18;;;9.70;99.70;;;;;;5053482;28;20041;-72
2021/10/13 05:56:51;;;;;;;16.33;9.48;;;9.80;99.70;;;;;;5032545;28;20503;-72
2021/10/13 05:59:17;;;;;;;19.00;8.48;;;10.00;99.00;;;;;;5033699;28;20017;-72
2021/10/13 06:01:43;;;;;;;17.73;9.25;;;9.90;99.50;;;;;;5034119;28;20057;-72
2021/10/13 06:04:09;;;;;;;17.48;8.77;;;10.00;99.00;;;;;;5032607;28;20432;-72
2021/10/13 06:06:34;;;;;;;17.13;9.88;;;10.00;99.00;;;;;;5033472;28;20600;-72
2021/10/13 06:09:00;;;;;;;18.83;8.90;;;9.90;99.50;;;;;;5033481;28;20037;-72
2021/10/13 06:11:25;;;;;;;17.13;8.95;;;9.90;99.60;;;;;;5033131;28;20033;-72
2021/10/13 06:13:52;;;;;;;19.08;8.55;;;10.10;99.20;;;;;;5033972;28;20104;-73
2021/10/13 06:16:19;;;;;;;16.80;8.18;;;10.00;99.10;;;;;;5033430;28;20026;-72
2021/10/13 06:18:46;;;;;;;15.30;8.35;;;10.10;99.00;;;;;;5033029;28;20064;-73
2021/10/13 06:21:12;;;;;;;19.05;8.88;;;10.20;98.90;;;;;;5032083;28;20052;-73
2021/10/13 06:23:38;;;;;;;14.07;8.35;;;10.30;98.70;;;;;;5033138;28;20029;-70
2021/10/13 06:26:04;;;;;;;19.35;7.80;;;10.30;98.60;;;;;;5033574;28;20033;-70
2021/10/13 06:28:29;;;;;;;14.73;9.05;;;10.40;98.50;;;;;;5033310;28;20018;-71
2021/10/13 06:30:55;;;;;;;14.68;8.32;;;10.40;98.40;;;;;;5033410;28;20068;-71
2021/10/13 06:33:21;;;;;;;19.25;8.10;;;10.40;98.40;;;;;;5032539;28;20102;-72
2021/10/13 06:35:46;;;;;;;19.27;7.97;;;10.50;98.30;;;;;;5032847;28;20068;-72
2021/10/13 06:38:12;;;;;;;11.80;7.65;;;10.50;98.20;;;;;;5031915;28;20091;-72
2021/10/13 06:40:37;;;;;;;20.33;9.23;;;10.60;98.30;;;;;;5032811;28;20347;-72
2021/10/13 06:43:04;;;;;;;17.83;7.75;;;10.60;98.20;;;;;;5031395;28;20110;-72
2021/10/13 06:45:35;;;;;;;19.48;9.15;;;10.70;98.10;;;;;;5032862;28;20033;-72
2021/10/13 06:48:01;;;;;;;15.35;7.80;;;10.70;98.00;;;;;;5032749;28;20056;-71
2021/10/13 06:50:27;;;;;;;16.75;8.52;;;10.70;98.10;;;;;;5032689;28;20029;-72
2021/10/13 06:52:52;;;;;;;12.68;8.23;;;10.80;98.10;;;;;;5033074;28;20044;-73
2021/10/13 06:55:18;;;;;;;17.33;8.20;;;10.80;98.00;;;;;;5032324;28;20040;-72
2021/10/13 06:57:43;;;;;;;10.82;6.43;;;10.80;98.00;;;;;;5032322;28;20412;-72
2021/10/13 07:00:10;;;;;;;15.55;7.50;;;10.80;97.90;;;;;;5031073;28;20025;-72
2021/10/13 07:02:35;;;;;;;19.00;7.38;;;10.70;97.70;;;;;;5032442;28;20482;-72
2021/10/13 07:05:01;;;;;;;14.50;7.88;;;10.80;97.80;;;;;;5032304;28;20375;-72
2021/10/13 07:07:26;;;;;;;15.88;7.97;;;10.80;97.80;;;;;;5031455;28;20017;-72
2021/10/13 07:09:52;;;;;;;23.42;6.85;;;10.80;97.80;;;;;;5032146;28;20429;-72
2021/10/13 07:12:18;;;;;;;15.50;6.95;;;10.80;97.80;;;;;;5030801;28;20119;-72
2021/10/13 07:14:43;;;;;;;10.30;5.65;;;10.80;97.80;;;;;;5030485;28;20033;-72
2021/10/13 07:17:09;;;;;;;13.68;5.75;;;10.90;97.70;;;;;;5031047;28;20025;-72
2021/10/13 07:19:34;;;;;;;14.32;6.35;;;10.80;97.70;;;;;;5032439;28;20394;-73
2021/10/13 07:22:00;;;;;;;11.93;5.97;;;10.80;97.70;;;;;;5032033;28;20033;-72
2021/10/13 07:24:25;;;;;;;16.70;6.82;;;10.80;97.80;;;;;;5032012;28;20036;-72
2021/10/13 07:26:51;;;;;;;14.82;5.53;;;10.90;97.70;;;;;;5032098;28;20029;-72
2021/10/13 07:29:17;;;;;;;15.23;5.80;;;11.00;97.60;;;;;;5031873;28;20112;-72
2021/10/13 07:31:42;;;;;;;10.63;5.32;;;11.10;97.60;;;;;;5032199;28;20041;-72
2021/10/13 07:34:08;;;;;;;9.20;4.93;;;11.00;97.50;;;;;;5031820;28;20052;-72
2021/10/13 07:36:34;;;;;;;10.95;5.13;;;11.10;97.60;;;;;;5031962;28;20156;-72
2021/10/13 07:38:59;;;;;;;13.82;5.28;;;11.10;97.50;;;;;;5031798;28;20091;-72
2021/10/13 07:41:26;;;;;;;11.50;4.57;;;11.10;97.40;;;;;;5031766;28;20109;-72
2021/10/13 07:43:52;;;;;;;8.93;4.25;;;11.20;97.50;;;;;;5030924;28;20021;-72
2021/10/13 07:46:18;;;;;;;13.25;5.82;;;11.20;97.30;;;;;;5031460;28;20029;-72
2021/10/13 07:48:43;;;;;;;11.98;5.00;;;11.20;97.30;;;;;;5031600;28;20052;-72
2021/10/13 07:51:09;;;;;;;11.52;4.22;;;11.30;97.40;;;;;;5031460;28;20032;-72
2021/10/13 07:53:36;;;;;;;12.52;4.25;;;11.20;97.20;;;;;;5031253;28;20137;-72
2021/10/13 07:56:02;;;;;;;13.02;4.50;;;11.30;97.30;;;;;;5031464;28;20323;-72
2021/10/13 07:58:27;;;;;;;11.50;3.65;;;11.30;97.30;;;;;;5032267;28;20022;-72
2021/10/13 08:00:53;;;;;;;14.98;4.30;;;11.50;97.30;;;;;;5030942;28;20038;-72
2021/10/13 08:03:18;;;;;;;15.15;4.60;;;11.50;97.00;;;;;;5031149;28;20029;-71
2021/10/13 08:05:44;;;;;;;8.75;3.78;;;11.50;97.00;;;;;;5031218;28;20311;-71
2021/10/13 08:08:10;;;;;;;13.23;4.25;;;11.50;97.10;;;;;;5031135;28;20367;-72
2021/10/13 08:10:35;;;;;;;9.20;3.47;;;11.70;97.00;;;;;;5031298;28;20055;-72
2021/10/13 08:13:01;;;;;;;12.52;3.70;;;11.90;96.70;;;;;;5030975;28;20030;-72
2021/10/13 08:15:27;;;;;;;12.55;4.80;;;12.00;96.70;;;;;;5031033;28;20091;-72
2021/10/13 08:17:52;;;;;;;11.80;3.85;;;11.90;96.50;;;;;;5031143;28;20087;-72
2021/10/13 08:20:18;;;;;;;15.43;4.40;;;12.00;96.60;;;;;;5031067;28;20434;-72
2021/10/13 08:22:48;;;;;;;11.30;3.75;;;12.00;96.20;;;;;;5031244;28;20026;-72
2021/10/13 08:25:14;;;;;;;16.67;5.00;;;12.00;96.20;;;;;;5030622;28;20044;-72
2021/10/13 08:27:40;;;;;;;15.15;4.78;;;12.10;96.10;;;;;;5030350;28;20036;-72
2021/10/13 08:30:08;;;;;;;12.73;3.97;;;12.10;95.90;;;;;;5030905;28;20038;-72
2021/10/13 08:32:34;;;;;;;9.43;4.45;;;12.40;96.00;;;;;;5030582;28;20053;-72
2021/10/13 08:35:00;;;;;;;7.53;3.45;;;12.10;95.70;;;;;;5031319;28;20466;-72
2021/10/13 08:37:26;;;;;;;14.60;3.22;;;12.30;95.50;;;;;;5030874;28;20107;-73
2021/10/13 08:39:51;;;;;;;9.60;3.40;;;12.40;95.20;;;;;;5030821;28;20103;-73
2021/10/13 08:42:22;;;;;;;8.95;3.28;;;12.60;95.50;;;;;;5029497;28;20030;-73
2021/10/13 08:44:48;;;;;;;11.80;3.25;;;12.60;94.80;;;;;;5030847;28;20034;-74
2021/10/13 08:47:14;;;;;;;10.80;3.75;;;12.70;94.90;;;;;;5029770;28;20021;-72
2021/10/13 08:49:40;;;;;;;10.40;3.40;;;12.90;94.60;;;;;;5031162;28;20029;-72
2021/10/13 08:52:13;;;;;;;9.23;3.28;;;13.30;94.20;;;;;;5030169;28;20037;-73
2021/10/13 08:54:40;;;;;;;8.85;3.22;;;13.60;94.20;;;;;;5029847;28;20499;-72
2021/10/13 08:57:35;;;;;;;6.90;3.65;;;13.80;93.30;;;;;;5030716;28;20029;-73
2021/10/13 09:00:01;;;;;;;7.90;3.20;;;14.20;93.10;;;;;;5003209;28;20413;-73
2021/10/13 09:02:41;;;;;;;10.95;3.22;;;14.70;93.00;;;;;;5030863;28;20112;-73
2021/10/13 09:05:20;;;;;;;9.00;3.55;;;15.30;92.80;;;;;;5029571;28;20017;-73
2021/10/13 09:07:53;;;;;;;8.98;3.70;;;15.60;91.60;;;;;;5030978;28;20089;-73
2021/10/13 09:10:37;;;;;;;9.30;3.15;;;15.60;90.40;;;;;;5030677;28;20053;-74
2021/10/13 09:13:13;;;;;;;15.55;3.75;;;15.90;90.30;;;;;;5030717;28;20045;-74
2021/10/13 09:15:39;;;;;;;11.63;3.40;;;16.00;90.10;;;;;;5030385;28;20479;-73
2021/10/13 09:18:06;;;;;;;11.15;3.50;;;16.00;89.70;;;;;;5030346;28;20034;-73
2021/10/13 09:20:38;;;;;;;9.60;3.17;;;15.60;89.80;;;;;;5030392;28;20082;-72
2021/10/13 09:23:08;;;;;;;7.22;3.20;;;15.60;90.30;;;;;;5030314;28;20104;-73
2021/10/13 09:25:36;;;;;;;9.88;3.45;;;15.80;90.20;;;;;;5030776;28;20048;-73
2021/10/13 09:28:04;;;;;;;;;;;16.30;89.30;;;;;;5030731;28;20394;-73
2021/10/13 09:30:39;;;;;;;10.50;3.40;;;16.80;87.00;;;;;;5030372;28;19966;-73
2021/10/13 09:33:14;;;;;;;14.25;3.33;;;17.90;86.60;;;;;;5030187;28;20271;-73
2021/10/13 09:35:42;;;;;;;7.68;2.90;;;19.10;84.10;;;;;;5029965;28;20034;-72
2021/10/13 09:38:10;;;;;;;;;;;19.90;81.00;;;;;;5032639;28;20029;-73
2021/10/13 09:40:36;;;;;;;11.32;3.30;;;20.10;79.40;;;;;;5034534;28;19987;-73
2021/10/13 09:43:02;;;;;;;12.45;4.03;;;20.70;78.40;;;;;;5033808;28;20113;-73
2021/10/13 09:45:31;;;;;;;13.13;3.35;;;21.00;76.20;;;;;;5032705;28;20037;-74
2021/10/13 09:48:04;;;;;;;6.82;3.20;;;21.70;75.90;;;;;;5033888;28;20032;-71
2021/10/13 09:50:45;;;;;;;11.70;3.42;;;21.90;73.70;;;;;;5033795;28;20025;-72
2021/10/13 09:53:15;;;;;;;10.45;3.95;;;22.40;72.40;;;;;;5033660;28;20021;-73
2021/10/13 09:55:41;;;;;;;7.45;3.75;;;22.80;70.80;;;;;;5034094;28;20078;-72
2021/10/13 09:58:22;;;;;;;7.93;3.60;;;22.50;69.80;;;;;;5033600;28;20034;-73
2021/10/13 10:00:47;;;;;;;11.60;3.85;;;22.90;70.80;;;;;;5033625;28;20345;-72
2021/10/13 10:03:16;;;;;;;7.43;3.42;;;22.80;69.50;;;;;;5033121;28;20048;-72
2021/10/13 10:05:42;;;;;;;7.75;3.65;;;22.50;68.90;;;;;;5033496;28;20034;-73
2021/10/13 10:08:10;;;;;;;8.45;4.10;;;22.50;68.00;;;;;;5033435;28;20081;-72
2021/10/13 10:10:38;;;;;;;12.27;4.70;;;23.30;71.10;;;;;;5033458;28;20046;-72
2021/10/13 10:13:13;;;;;;;10.30;3.97;;;23.80;67.10;;;;;;5031922;28;20048;-72
2021/10/13 10:15:42;;;;;;;10.63;3.40;;;24.00;65.30;;;;;;5033257;28;20137;-72
2021/10/13 10:18:33;;;;;;;10.38;3.20;;;23.10;64.60;;;;;;5033163;28;20025;-72
2021/10/13 10:21:21;;;;;;;8.85;3.53;;;22.90;65.80;;;;;;5031763;28;20423;-73
2021/10/13 10:23:58;;;;;;;11.57;3.92;;;22.60;65.60;;;;;;5032993;28;20040;-72
2021/10/13 10:26:27;;;;;;;8.93;3.13;;;23.50;66.80;;;;;;5033073;28;20022;-73
2021/10/13 10:28:55;;;;;;;9.20;3.13;;;24.10;63.50;;;;;;5033610;28;20077;-73
2021/10/13 10:31:26;;;;;;;6.45;2.47;;;24.70;62.80;;;;;;5033047;28;20032;-73
2021/10/13 10:34:07;;;;;;;6.35;2.55;;;25.20;62.30;;;;;;5032800;28;20041;-73
2021/10/13 10:36:37;;;;;;;7.18;2.35;;;23.90;60.00;;;;;;5031559;28;20477;-72
2021/10/13 10:39:11;;;;;;;5.78;2.60;;;23.70;62.00;;;;;;5032690;28;20091;-72
2021/10/13 10:41:52;;;;;;;9.68;2.55;;;23.20;63.10;;;;;;5032830;28;20120;-71
2021/10/13 10:44:45;;;;;;;10.55;2.75;;;23.20;62.70;;;;;;5032576;28;20071;-71
2021/10/13 10:47:16;;;;;;;7.22;2.15;;;22.70;63.30;;;;;;5032705;28;20021;-72
2021/10/13 10:50:04;;;;;;;8.60;2.92;;;22.30;65.10;;;;;;5032172;28;20021;-73
2021/10/13 10:52:30;;;;;;;6.28;2.53;;;22.30;64.70;;;;;;5032635;28;20103;-73
2021/10/13 10:55:08;;;;;;;8.52;2.88;;;22.30;65.00;;;;;;5031285;28;20057;-72
2021/10/13 10:57:51;;;;;;;20.85;3.80;;;22.60;64.10;;;;;;5032532;28;20037;-72
2021/10/13 11:00:22;;;;;;;12.35;3.55;;;22.10;64.00;;;;;;5032261;28;20029;-71
2021/10/13 11:02:49;;;;;;;9.07;2.40;;;21.50;63.90;;;;;;5032332;28;20029;-71
2021/10/13 11:05:15;;;;;;;6.05;2.30;;;21.10;65.30;;;;;;5032493;28;20040;-73
2021/10/13 11:07:42;;;;;;;9.63;2.42;;;20.30;66.40;;;;;;5032575;28;20125;-73
2021/10/13 11:10:12;;;;;;;10.20;2.42;;;19.10;67.60;;;;;;5031938;28;20203;-75
2021/10/13 11:12:52;;;;;;;8.77;2.28;;;18.60;69.50;;;;;;5032140;28;20037;-75
2021/10/13 11:15:21;;;;;;;11.07;2.05;;;18.30;69.60;;;;;;5032176;28;20045;-74
2021/10/13 11:17:48;;;;;;;9.77;2.10;;;18.20;70.70;;;;;;5032074;28;20037;-71
2021/10/13 11:20:16;;;;;;;8.48;2.72;;;18.30;71.00;;;;;;5031865;28;20044;-72
2021/10/13 11:22:43;;;;;;;11.60;2.40;;;18.10;71.60;;;;;;5032412;28;20095;-72
2021/10/13 11:25:19;;;;;;;4.85;1.73;;;18.10;71.70;;;;;;5031896;28;20037;-73
2021/10/13 11:27:58;;;;;;;6.70;2.00;;;18.20;72.00;;;;;;5031802;28;20061;-72
2021/10/13 11:30:25;;;;;;;9.05;2.28;;;18.00;72.40;;;;;;5031648;28;20037;-73
2021/10/13 11:32:50;;;;;;;11.82;2.63;;;18.30;72.30;;;;;;5031451;28;20060;-72
2021/10/13 11:35:19;;;;;;;7.07;2.10;;;18.40;72.20;;;;;;5031776;28;20468;-73
2021/10/13 11:37:50;;;;;;;5.60;1.48;;;17.90;73.20;;;;;;5032198;28;20091;-73
2021/10/13 11:40:18;;;;;;;10.77;2.25;;;17.50;73.00;;;;;;5031518;28;20033;-72
2021/10/13 11:42:44;;;;;;;6.13;1.67;;;17.30;73.60;;;;;;5031499;28;20416;-71
2021/10/13 11:45:19;;;;;;;7.40;1.30;;;17.00;74.30;;;;;;5030371;28;20152;-72
2021/10/13 11:47:45;;;;;;;9.52;1.90;;;16.80;75.20;;;;;;5031591;28;20025;-72
2021/10/13 11:50:12;;;;;;;8.85;2.13;;;16.70;76.00;;;;;;5030407;28;20099;-71
2021/10/13 11:52:42;;;;;;;7.05;1.73;;;16.60;76.70;;;;;;5031867;28;20033;-71
2021/10/13 11:55:12;;;;;;;9.23;2.00;;;16.50;77.30;;;;;;5031340;28;20363;-71
2021/10/13 11:57:40;;;;;;;6.40;2.63;;;16.50;79.00;;;;;;5031273;28;20418;-72
2021/10/13 12:00:26;;;;;;;18.60;2.60;;;16.60;79.20;;;;;;5031020;28;20033;-71
2021/10/13 12:03:12;;;;;;;8.77;1.85;;;16.60;79.30;;;;;;5031383;28;20029;-71
2021/10/13 12:05:39;;;;;;;7.30;1.48;;;16.20;79.00;;;;;;5031177;28;20041;-72
2021/10/13 12:08:09;;;;;;;4.70;1.42;;;16.00;79.40;;;;;;5031603;28;20026;-73
2021/10/13 12:10:38;;;;;;;7.25;1.80;;;15.80;80.40;;;;;;5032224;28;20404;-72
2021/10/13 12:13:07;;;;;;;4.82;1.00;;;15.70;80.90;;;;;;5031203;28;20117;-70
2021/10/13 12:15:32;;;;;;;8.57;1.63;;;15.30;81.90;;;;;;5031188;28;20029;-70
2021/10/13 12:18:08;;;;;;;6.10;1.30;;;15.40;82.40;;;;;;5030941;28;20060;-71
2021/10/13 12:20:34;;;;;;;5.75;1.60;;;15.60;82.70;;;;;;5031000;28;20033;-69
2021/10/13 12:23:12;;;;;;;10.68;2.88;;;15.70;84.10;;;;;;5031529;28;20029;-70
2021/10/13 12:25:37;;;;;;;10.50;1.60;;;15.80;84.30;;;;;;5031289;28;20065;-69
2021/10/13 12:28:13;;;;;;;4.55;1.35;;;15.90;83.40;;;;;;5030745;28;20451;-68
2021/10/13 12:30:39;;;;;;;5.07;1.55;;;16.20;83.40;;;;;;5031153;28;20089;-71
2021/10/13 12:33:12;;;;;;;4.43;1.38;;;16.40;83.40;;;;;;5030808;28;20034;-71
2021/10/13 12:35:38;;;;;;;7.78;1.88;;;16.50;83.30;;;;;;5030845;28;20131;-70
2021/10/13 12:38:14;;;;;;;5.53;1.55;;;16.20;82.10;;;;;;5030819;28;20443;-71
2021/10/13 12:40:58;;;;;;;4.20;1.30;;;16.20;82.50;;;;;;5030395;28;20060;-71
2021/10/13 12:43:23;;;;;;;4.78;1.10;;;16.20;81.90;;;;;;5030880;28;20108;-71
2021/10/13 12:45:49;;;;;;;4.38;1.10;;;16.10;81.90;;;;;;5030744;28;20112;-70
2021/10/13 12:48:17;;;;;;;11.20;1.45;;;16.10;82.00;;;;;;5030705;28;20040;-70
2021/10/13 12:51:09;;;;;;;4.40;1.48;;;16.30;82.00;;;;;;5030662;28;20120;-69